Time;durP1;ratioP1;P1;durP2;ratioP2;P2;SDS_P1;SDS_P2;PMS_P1;PMS_P2;Temp;Humidity;BMP_temperature;BMP_pressure;BME280_temperature;BME280_humidity;BME280_pressure;Samples;Min_cycle;Max_cycle;Signal;HPM_P1;HPM_P2
2021/12/11 00:02:27;;;;;;;26.55;14.55;;;-1.30;99.90;;;;;;5005071;28;20014;-83
2021/12/11 00:04:57;;;;;;;25.92;15.50;;;-0.50;99.90;;;;;;5004584;28;20014;-84
2021/12/11 00:07:26;;;;;;;29.58;15.52;;;-1.30;99.90;;;;;;5021547;28;20223;-84
2021/12/11 00:10:16;;;;;;;28.70;16.13;;;-1.30;99.90;;;;;;4987376;28;20018;-83
2021/12/11 00:12:56;;;;;;;27.00;14.50;;;-1.30;99.90;;;;;;5004802;28;20227;-83
2021/12/11 00:15:30;;;;;;;25.10;14.20;;;-1.30;99.90;;;;;;5001981;28;20141;-83
2021/12/11 00:18:18;;;;;;;27.42;14.90;;;-1.30;99.90;;;;;;5003633;28;20038;-82
2021/12/11 00:20:58;;;;;;;27.20;14.88;;;-1.20;99.90;;;;;;5005536;28;20291;-84
2021/12/11 00:23:35;;;;;;;27.48;14.82;;;-1.20;99.90;;;;;;5021730;28;20017;-83
2021/12/11 00:26:09;;;;;;;28.75;14.57;;;-1.30;99.90;;;;;;5004474;28;20061;-84
2021/12/11 00:28:54;;;;;;;28.75;15.07;;;-1.40;99.90;;;;;;5004705;28;20085;-83
2021/12/11 00:31:20;;;;;;;26.25;14.68;;;-1.30;99.90;;;;;;5017989;28;20036;-83
2021/12/11 00:33:48;;;;;;;26.85;14.52;;;0.60;99.90;;;;;;5003736;28;20041;-83
2021/12/11 00:36:19;;;;;;;26.70;14.38;;;-1.30;99.90;;;;;;5017656;28;20028;-83
2021/12/11 00:38:48;;;;;;;28.05;15.93;;;-1.30;99.90;;;;;;5021485;28;20022;-83
2021/12/11 00:41:17;;;;;;;26.50;14.90;;;-1.40;99.90;;;;;;5021324;28;20022;-83
2021/12/11 00:43:45;;;;;;;28.00;15.02;;;-1.40;99.90;;;;;;5005090;28;20025;-84
2021/12/11 00:46:15;;;;;;;28.23;15.93;;;-1.40;99.90;;;;;;5023527;28;20280;-84
2021/12/11 00:48:42;;;;;;;27.98;15.23;;;-0.30;99.90;;;;;;5006815;28;20026;-84
2021/12/11 00:51:12;;;;;;;24.67;15.07;;;-1.40;99.90;;;;;;4992742;28;20018;-84
2021/12/11 00:53:43;;;;;;;26.40;14.25;;;-1.40;99.90;;;;;;5025194;28;20026;-84
2021/12/11 00:56:24;;;;;;;26.20;14.48;;;-1.40;99.90;;;;;;5005730;28;20017;-83
2021/12/11 00:58:52;;;;;;;24.50;13.52;;;-1.50;99.90;;;;;;5008583;28;20201;-84
2021/12/11 01:01:23;;;;;;;25.48;13.93;;;0.00;99.90;;;;;;5023788;28;20324;-84
2021/12/11 01:04:03;;;;;;;26.30;14.25;;;-1.40;99.90;;;;;;5008280;28;20030;-84
2021/12/11 01:06:39;;;;;;;25.50;13.52;;;0.50;99.90;;;;;;5024501;28;20289;-84
2021/12/11 01:09:14;;;;;;;25.48;13.60;;;-1.40;99.90;;;;;;5007860;28;20026;-84
2021/12/11 01:11:45;;;;;;;25.08;13.55;;;-1.20;99.90;;;;;;5007866;28;20100;-84
2021/12/11 01:14:34;;;;;;;29.52;15.13;;;-1.10;99.90;;;;;;5024583;28;20076;-84
2021/12/11 01:17:24;;;;;;;31.38;15.68;;;-1.50;99.90;;;;;;5007265;28;20037;-84
2021/12/11 01:19:59;;;;;;;32.88;16.17;;;-1.40;99.90;;;;;;4995745;28;20025;-83
2021/12/11 01:22:33;;;;;;;32.20;15.75;;;-1.30;99.90;;;;;;5025031;28;20025;-83
2021/12/11 01:25:22;;;;;;;28.38;15.68;;;-1.20;99.90;;;;;;5023665;28;20067;-83
2021/12/11 01:27:59;;;;;;;25.52;13.75;;;-0.50;99.90;;;;;;5003990;28;20212;-83
2021/12/11 01:30:31;;;;;;;25.92;13.82;;;-1.10;99.90;;;;;;5007707;28;20032;-83
2021/12/11 01:32:57;;;;;;;71.03;19.85;;;-0.60;99.90;;;;;;5024226;28;20032;-84
2021/12/11 01:35:24;;;;;;;192.35;24.38;;;-1.10;99.90;;;;;;5007713;28;20093;-84
2021/12/11 01:38:07;;;;;;;27.40;14.15;;;-0.50;99.90;;;;;;5007308;28;20049;-84
2021/12/11 01:40:34;;;;;;;31.80;14.98;;;-0.90;99.90;;;;;;5024332;28;20080;-84
2021/12/11 01:43:02;;;;;;;26.63;13.65;;;-1.10;99.90;;;;;;4991448;28;20026;-83
2021/12/11 01:45:29;;;;;;;27.10;14.60;;;-1.10;99.90;;;;;;5007669;28;20022;-84
2021/12/11 01:47:55;;;;;;;25.70;14.10;;;-1.10;99.90;;;;;;5006810;28;20018;-83
2021/12/11 01:50:29;;;;;;;31.48;15.75;;;-0.70;99.90;;;;;;4991352;28;20201;-84
2021/12/11 01:53:00;;;;;;;37.08;16.83;;;-1.10;99.90;;;;;;5001140;28;20076;-83
2021/12/11 01:55:53;;;;;;;41.08;19.60;;;-1.00;99.90;;;;;;5023760;28;20022;-83
2021/12/11 01:58:32;;;;;;;30.92;16.70;;;-1.00;99.90;;;;;;5019325;28;20025;-83
2021/12/11 02:01:09;;;;;;;36.95;18.55;;;-0.90;99.90;;;;;;5004882;28;20029;-84
2021/12/11 02:03:35;;;;;;;36.60;17.83;;;-0.90;99.90;;;;;;5006604;28;20085;-84
2021/12/11 02:06:06;;;;;;;34.33;16.83;;;-0.90;99.90;;;;;;5023676;28;20044;-82
2021/12/11 02:08:48;;;;;;;43.20;19.85;;;-0.80;99.90;;;;;;5024339;28;20025;-83
2021/12/11 02:11:26;;;;;;;46.15;20.60;;;-0.80;99.90;;;;;;4993769;28;20049;-83
2021/12/11 02:13:59;;;;;;;44.85;21.25;;;-0.60;99.90;;;;;;5009231;28;20030;-83
2021/12/11 02:16:25;;;;;;;44.63;21.05;;;-0.50;99.90;;;;;;5006424;28;20021;-83
2021/12/11 02:19:04;;;;;;;38.95;19.00;;;-0.70;99.90;;;;;;5006895;28;20093;-83
2021/12/11 02:21:38;;;;;;;39.90;19.30;;;-0.70;99.90;;;;;;5006561;28;20028;-84
2021/12/11 02:24:09;;;;;;;38.55;19.38;;;;;;;;;;4990618;28;20084;-85
2021/12/11 02:26:44;;;;;;;37.50;19.88;;;;;;;;;;5022917;28;20291;-84
2021/12/11 02:29:20;;;;;;;33.85;17.45;;;-0.90;99.90;;;;;;5006000;28;20026;-84
2021/12/11 02:32:02;;;;;;;46.13;22.15;;;-0.90;99.90;;;;;;5006467;28;20359;-84
2021/12/11 02:34:40;;;;;;;34.42;18.20;;;-0.90;99.90;;;;;;5006830;28;20026;-85
2021/12/11 02:37:21;;;;;;;31.98;18.00;;;-0.90;99.90;;;;;;5019958;28;20032;-84
2021/12/11 02:40:03;;;;;;;36.55;18.38;;;-0.90;99.90;;;;;;5022984;28;20026;-84
2021/12/11 02:42:41;;;;;;;34.38;17.98;;;;;;;;;;5021943;28;20033;-84
2021/12/11 02:45:15;;;;;;;33.78;17.73;;;;;;;;;;5005392;28;20030;-85
2021/12/11 02:47:55;;;;;;;42.88;20.67;;;-0.90;99.90;;;;;;5005775;28;20052;-85
2021/12/11 02:50:27;;;;;;;36.58;19.00;;;-1.00;99.90;;;;;;5005635;28;20017;-84
2021/12/11 02:53:02;;;;;;;37.03;18.95;;;-0.90;99.90;;;;;;5005974;28;20059;-84
2021/12/11 02:56:06;;;;;;;42.38;19.35;;;-0.80;99.90;;;;;;5005514;28;20018;-84
2021/12/11 02:58:34;;;;;;;36.85;18.45;;;;;;;;;;4986751;28;20037;-84
2021/12/11 03:01:11;;;;;;;36.10;17.85;;;-0.90;99.90;;;;;;5005620;28;20034;-84
2021/12/11 03:03:42;;;;;;;35.75;18.23;;;-0.80;99.90;;;;;;5022383;28;20226;-84
2021/12/11 03:06:17;;;;;;;41.33;19.27;;;-0.80;99.90;;;;;;5003789;28;20032;-84
2021/12/11 03:08:47;;;;;;;43.65;20.23;;;0.30;99.90;;;;;;5005625;28;20196;-84
2021/12/11 03:11:17;;;;;;;36.15;18.27;;;-0.70;99.90;;;;;;5022823;28;20045;-84
2021/12/11 03:13:50;;;;;;;42.83;20.25;;;0.60;99.90;;;;;;5025082;28;20026;-84
2021/12/11 03:16:21;;;;;;;33.45;17.90;;;;;;;;;;5002750;28;20034;-84
2021/12/11 03:18:47;;;;;;;38.90;21.50;;;-0.60;99.90;;;;;;4999981;28;20088;-83
2021/12/11 03:21:13;;;;;;;39.78;19.10;;;1.30;99.90;;;;;;4989690;28;20018;-84
2021/12/11 03:23:40;;;;;;;43.75;23.48;;;-0.50;99.90;;;;;;4990430;28;20184;-83
2021/12/11 03:26:06;;;;;;;44.58;21.48;;;-0.40;99.90;;;;;;5005917;28;20093;-84
2021/12/11 03:28:32;;;;;;;46.40;23.10;;;0.50;99.90;;;;;;5005901;28;20084;-84
2021/12/11 03:31:01;;;;;;;47.80;23.80;;;-0.30;99.90;;;;;;5022248;28;20053;-84
2021/12/11 03:33:54;;;;;;;45.60;23.02;;;-0.30;99.90;;;;;;5021296;28;20053;-84
2021/12/11 03:36:22;;;;;;;43.55;22.30;;;-0.30;99.90;;;;;;5012380;28;20034;-84
2021/12/11 03:38:55;;;;;;;44.55;23.02;;;-0.30;99.90;;;;;;5005386;28;20184;-84
2021/12/11 03:41:22;;;;;;;41.40;22.33;;;-0.40;99.90;;;;;;5003960;28;20017;-84
2021/12/11 03:43:49;;;;;;;37.30;20.02;;;0.20;99.90;;;;;;4989082;28;20262;-84
2021/12/11 03:46:19;;;;;;;46.88;21.25;;;1.40;99.90;;;;;;5005757;28;20220;-84
2021/12/11 03:48:55;;;;;;;43.13;21.27;;;-0.60;99.90;;;;;;5005341;28;20025;-84
2021/12/11 03:51:25;;;;;;;40.58;20.73;;;1.40;99.90;;;;;;5019204;28;20018;-84
2021/12/11 03:53:53;;;;;;;45.90;23.15;;;-0.40;99.90;;;;;;5021145;28;20039;-84
2021/12/11 03:56:20;;;;;;;44.65;22.52;;;-0.40;99.90;;;;;;5005684;28;20161;-84
2021/12/11 03:58:50;;;;;;;49.92;22.65;;;-0.30;99.90;;;;;;5022836;28;20025;-83
2021/12/11 04:01:40;;;;;;;40.95;20.23;;;-0.30;99.90;;;;;;5022254;28;20026;-84
2021/12/11 04:04:16;;;;;;;42.38;21.50;;;-0.30;99.90;;;;;;5021592;28;20052;-84
2021/12/11 04:06:43;;;;;;;45.60;22.70;;;1.50;99.90;;;;;;5021923;28;20022;-84
2021/12/11 04:09:11;;;;;;;45.00;22.88;;;-0.30;99.90;;;;;;5005621;28;20100;-84
2021/12/11 04:11:39;;;;;;;46.15;22.30;;;0.90;99.90;;;;;;5026556;28;20296;-84
2021/12/11 04:14:12;;;;;;;38.15;21.00;;;1.10;99.90;;;;;;5001897;28;20022;-84
2021/12/11 04:16:38;;;;;;;;;;;-0.20;99.90;;;;;;5005032;28;20025;-84
2021/12/11 04:19:06;;;;;;;44.40;22.58;;;0.20;99.90;;;;;;5021615;28;19906;-84
2021/12/11 04:21:32;;;;;;;45.53;23.15;;;-0.20;99.90;;;;;;5006759;28;20038;-84
2021/12/11 04:23:58;;;;;;;43.63;22.73;;;-0.20;99.90;;;;;;5025091;28;20093;-84
2021/12/11 04:26:25;;;;;;;41.15;22.00;;;-0.10;99.90;;;;;;4992268;28;20028;-84
2021/12/11 04:28:51;;;;;;;37.67;20.60;;;0.80;99.90;;;;;;4992114;28;20054;-84
2021/12/11 04:31:23;;;;;;;42.42;22.08;;;-0.20;99.90;;;;;;5025771;28;20239;-84
2021/12/11 04:33:51;;;;;;;41.50;22.45;;;1.10;99.90;;;;;;5025557;28;20057;-83
2021/12/11 04:36:21;;;;;;;40.47;20.85;;;-0.10;99.90;;;;;;5024548;28;20034;-83
2021/12/11 04:38:49;;;;;;;44.72;22.50;;;0.30;99.90;;;;;;5008176;28;20108;-85
2021/12/11 04:41:19;;;;;;;39.97;20.65;;;-0.40;99.90;;;;;;5026122;28;20032;-85
2021/12/11 04:43:50;;;;;;;40.33;20.63;;;-0.40;99.90;;;;;;5008184;28;20080;-85
2021/12/11 04:46:16;;;;;;;40.42;20.55;;;-0.40;99.90;;;;;;5025316;28;20103;-85
2021/12/11 04:49:13;;;;;;;40.08;20.55;;;-0.50;99.90;;;;;;4991798;28;20025;-84
2021/12/11 04:51:49;;;;;;;36.88;20.33;;;-0.50;99.90;;;;;;5021106;28;20028;-85
2021/12/11 04:54:47;;;;;;;38.42;20.08;;;0.10;99.90;;;;;;5023255;28;20057;-84
2021/12/11 05:07:31;;;;;;;33.42;18.40;;;-0.80;99.90;;;;;;5024099;28;20029;-84
2021/12/11 05:10:13;;;;;;;35.75;19.27;;;-0.80;99.90;;;;;;4992006;28;20276;-84
2021/12/11 05:12:39;;;;;;;43.90;21.98;;;0.90;99.90;;;;;;5008007;28;20126;-84
2021/12/11 05:15:09;;;;;;;50.50;22.58;;;-0.80;99.90;;;;;;5024304;28;20035;-85
2021/12/11 05:17:35;;;;;;;48.28;23.85;;;-0.70;99.90;;;;;;5007464;28;20109;-83
2021/12/11 05:20:06;;;;;;;41.58;21.83;;;-0.60;99.90;;;;;;4991934;28;20033;-84
2021/12/11 05:22:32;;;;;;;47.92;23.30;;;-0.40;99.90;;;;;;5024160;28;20085;-84
2021/12/11 05:24:58;;;;;;;48.63;24.50;;;-0.40;99.90;;;;;;5024299;28;20049;-84
2021/12/11 05:27:28;;;;;;;43.45;22.77;;;-0.30;99.90;;;;;;5006890;28;20097;-84
2021/12/11 05:29:54;;;;;;;47.88;24.88;;;-0.30;99.90;;;;;;4991899;28;20086;-84
2021/12/11 05:32:23;;;;;;;52.13;25.45;;;-0.30;99.90;;;;;;4991417;28;20296;-84
2021/12/11 05:34:50;;;;;;;50.80;24.15;;;0.80;99.90;;;;;;5022990;28;20014;-84
2021/12/11 05:37:16;;;;;;;48.03;23.00;;;0.10;99.90;;;;;;5021768;28;20087;-84
2021/12/11 05:39:42;;;;;;;51.05;23.08;;;-0.10;99.90;;;;;;5022845;28;20272;-84
2021/12/11 05:42:08;;;;;;;48.30;22.92;;;-0.10;99.90;;;;;;4990873;28;20228;-84
2021/12/11 05:44:35;;;;;;;45.33;22.75;;;0.00;99.90;;;;;;5025195;28;20018;-84
2021/12/11 05:47:03;;;;;;;47.05;23.00;;;1.30;99.90;;;;;;4990697;28;20018;-84
2021/12/11 05:49:30;;;;;;;45.88;23.00;;;-0.10;99.90;;;;;;5007380;28;20024;-84
2021/12/11 05:51:57;;;;;;;45.80;22.33;;;0.00;99.90;;;;;;5007053;28;20085;-84
2021/12/11 05:54:25;;;;;;;44.50;22.52;;;-0.10;99.90;;;;;;5007327;28;20053;-83
2021/12/11 05:56:59;;;;;;;45.20;22.58;;;3.10;99.90;;;;;;5038964;28;20037;-84
2021/12/11 05:59:26;;;;;;;41.10;21.17;;;0.00;99.90;;;;;;5004945;28;20018;-84
2021/12/11 06:02:19;;;;;;;45.03;23.15;;;1.20;99.90;;;;;;5022958;28;20025;-84
2021/12/11 06:04:48;;;;;;;42.05;21.27;;;0.00;99.90;;;;;;5023581;28;20157;-84
2021/12/11 06:07:16;;;;;;;45.22;22.60;;;0.00;99.90;;;;;;5022492;28;20018;-84
2021/12/11 06:09:45;;;;;;;43.10;21.52;;;0.00;99.90;;;;;;5007075;28;20021;-83
2021/12/11 06:12:14;;;;;;;42.97;21.25;;;0.00;99.90;;;;;;4999428;28;20042;-85
2021/12/11 06:14:41;;;;;;;41.35;21.98;;;0.00;99.90;;;;;;5023223;28;20112;-83
2021/12/11 06:17:10;;;;;;;41.05;21.52;;;0.00;99.90;;;;;;5005871;28;20068;-83
2021/12/11 06:19:37;;;;;;;42.55;22.30;;;0.00;99.90;;;;;;4991164;28;20053;-83
2021/12/11 06:22:04;;;;;;;50.13;23.92;;;0.00;99.90;;;;;;5006702;28;20093;-83
2021/12/11 06:24:30;;;;;;;44.58;22.38;;;0.00;99.90;;;;;;5006980;28;20032;-83
2021/12/11 06:26:58;;;;;;;42.35;22.33;;;0.00;99.90;;;;;;4989509;28;20068;-84
2021/12/11 06:29:25;;;;;;;47.75;22.80;;;0.10;99.90;;;;;;4990001;28;20021;-84
2021/12/11 06:31:52;;;;;;;46.38;23.15;;;0.10;99.90;;;;;;5022719;28;20061;-84
2021/12/11 06:34:18;;;;;;;45.78;22.73;;;0.00;99.90;;;;;;4990117;28;20077;-84
2021/12/11 06:36:46;;;;;;;45.67;22.40;;;0.80;99.90;;;;;;5006258;28;20302;-84
2021/12/11 06:39:16;;;;;;;46.92;23.77;;;0.10;99.90;;;;;;5005683;28;20091;-84
2021/12/11 06:41:45;;;;;;;48.13;23.27;;;1.30;99.90;;;;;;5022770;28;20268;-84
2021/12/11 06:44:11;;;;;;;46.45;23.55;;;0.00;99.90;;;;;;5016304;28;20052;-84
2021/12/11 06:46:40;;;;;;;44.55;22.42;;;0.00;99.90;;;;;;5006359;28;20068;-84
2021/12/11 06:49:09;;;;;;;45.72;22.80;;;0.00;99.90;;;;;;5005853;28;20194;-85
2021/12/11 06:51:36;;;;;;;44.85;22.88;;;0.00;99.90;;;;;;5022472;28;20045;-84
2021/12/11 06:54:08;;;;;;;46.83;22.88;;;0.00;99.90;;;;;;5019456;28;20367;-85
2021/12/11 06:56:36;;;;;;;44.85;23.05;;;0.10;99.90;;;;;;5005643;28;20353;-85
2021/12/11 06:59:03;;;;;;;43.28;22.40;;;0.00;99.90;;;;;;5005701;28;20059;-85
2021/12/11 07:01:29;;;;;;;40.58;22.63;;;0.50;99.90;;;;;;4990718;28;20032;-84
2021/12/11 07:03:57;;;;;;;48.60;23.05;;;-0.10;99.90;;;;;;4989535;28;20225;-84
2021/12/11 07:06:23;;;;;;;43.53;21.98;;;-0.10;99.90;;;;;;5004951;28;20035;-86
2021/12/11 07:08:51;;;;;;;44.47;22.15;;;0.80;99.90;;;;;;5005406;28;20026;-86
2021/12/11 07:11:17;;;;;;;46.13;23.38;;;0.30;99.90;;;;;;5021777;28;20096;-84
2021/12/11 07:13:44;;;;;;;45.42;23.42;;;-0.10;99.90;;;;;;5005913;28;20038;-84
2021/12/11 07:16:27;;;;;;;40.95;21.85;;;0.30;99.90;;;;;;5005185;28;20085;-86
2021/12/11 07:18:53;;;;;;;44.15;21.80;;;-0.20;99.90;;;;;;4973557;28;20292;-85
2021/12/11 07:21:19;;;;;;;45.70;23.70;;;-0.20;99.90;;;;;;4988144;28;20022;-85
2021/12/11 07:23:48;;;;;;;44.97;23.13;;;0.00;99.90;;;;;;4987042;28;20054;-85
2021/12/11 07:26:23;;;;;;;41.97;22.80;;;-0.20;99.90;;;;;;4981651;28;20395;-84
2021/12/11 07:28:53;;;;;;;46.63;23.15;;;-0.20;99.90;;;;;;5005184;28;20025;-85
2021/12/11 07:31:21;;;;;;;44.28;23.02;;;-0.20;99.90;;;;;;5005893;28;20025;-85
2021/12/11 07:33:48;;;;;;;45.70;23.27;;;1.10;99.90;;;;;;5019513;28;20041;-85
2021/12/11 07:36:14;;;;;;;44.60;22.77;;;-1.60;99.90;;;;;;5016930;28;20160;-85
2021/12/11 07:38:40;;;;;;;50.13;24.30;;;-0.20;99.90;;;;;;4983414;28;20060;-86
2021/12/11 07:41:09;;;;;;;42.75;22.35;;;1.20;99.90;;;;;;4989539;28;20030;-86
2021/12/11 07:43:47;;;;;;;47.00;22.85;;;-0.20;99.90;;;;;;5024659;28;20092;-86
2021/12/11 07:46:15;;;;;;;44.85;22.45;;;1.30;99.90;;;;;;5015116;28;20283;-85
2021/12/11 07:48:43;;;;;;;46.08;22.35;;;-0.30;99.90;;;;;;5004895;28;20053;-83
2021/12/11 07:51:10;;;;;;;45.53;23.23;;;-0.30;99.90;;;;;;4989217;28;20034;-83
2021/12/11 07:53:36;;;;;;;42.25;22.63;;;-0.20;99.90;;;;;;5004827;28;20403;-83
2021/12/11 07:56:03;;;;;;;42.90;22.50;;;-0.30;99.90;;;;;;5005145;28;20032;-84
2021/12/11 07:58:32;;;;;;;42.42;22.65;;;-0.30;99.90;;;;;;4992600;28;20030;-83
2021/12/11 08:00:58;;;;;;;43.42;22.73;;;-0.20;99.90;;;;;;4993147;28;20052;-83
2021/12/11 08:03:25;;;;;;;41.97;21.73;;;0.50;99.90;;;;;;5008568;28;20049;-84
2021/12/11 08:05:52;;;;;;;41.40;22.45;;;-0.30;99.90;;;;;;4991715;28;20021;-83
2021/12/11 08:08:20;;;;;;;43.10;22.98;;;-0.30;99.90;;;;;;5025368;28;20101;-82
2021/12/11 08:10:53;;;;;;;41.53;22.48;;;0.00;99.90;;;;;;5026814;28;20145;-83
2021/12/11 08:13:19;;;;;;;42.10;22.55;;;-0.20;99.90;;;;;;5007367;28;20271;-83
2021/12/11 08:15:45;;;;;;;43.72;21.70;;;-0.20;99.90;;;;;;4991679;28;20026;-83
2021/12/11 08:18:14;;;;;;;43.55;24.15;;;-0.10;99.90;;;;;;5024741;28;20054;-83
2021/12/11 08:20:42;;;;;;;45.40;23.27;;;-0.10;99.90;;;;;;5027121;28;20032;-84
2021/12/11 08:23:12;;;;;;;45.55;24.05;;;0.80;99.90;;;;;;5025173;28;20082;-83
2021/12/11 08:25:40;;;;;;;43.83;23.27;;;0.20;99.90;;;;;;5009150;28;20053;-82
2021/12/11 08:28:08;;;;;;;46.33;24.05;;;0.40;99.90;;;;;;5008097;28;20388;-82
2021/12/11 08:30:35;;;;;;;40.83;24.15;;;1.60;99.90;;;;;;5005801;28;20018;-83
2021/12/11 08:33:02;;;;;;;45.40;24.92;;;0.10;99.90;;;;;;5021700;28;20028;-88
2021/12/11 08:35:28;;;;;;;45.15;23.92;;;0.10;99.90;;;;;;5022897;28;20028;-89
2021/12/11 08:37:55;;;;;;;45.25;24.33;;;0.20;99.90;;;;;;5024945;28;20260;-89
2021/12/11 08:40:27;;;;;;;42.67;23.20;;;1.50;99.90;;;;;;5008657;28;20040;-87
2021/12/11 08:42:54;;;;;;;40.15;23.45;;;1.70;99.90;;;;;;5026476;28;20029;-88
2021/12/11 08:45:24;;;;;;;45.40;24.40;;;0.30;99.90;;;;;;5006888;28;20041;-87
2021/12/11 08:47:56;;;;;;;44.67;22.75;;;0.30;99.90;;;;;;5007990;28;20029;-86
2021/12/11 08:50:26;;;;;;;44.77;22.50;;;0.40;99.90;;;;;;5032501;28;20026;-88
2021/12/11 08:52:54;;;;;;;43.88;24.33;;;0.30;99.90;;;;;;5004017;28;20154;-89
2021/12/11 08:55:27;;;;;;;44.25;23.58;;;0.40;99.90;;;;;;5023628;28;20219;-89
2021/12/11 08:58:11;;;;;;;41.95;22.35;;;0.50;99.90;;;;;;5007902;28;20021;-88
2021/12/11 09:00:45;;;;;;;42.53;22.10;;;0.50;99.90;;;;;;5006908;28;20272;-87
2021/12/11 09:03:50;;;;;;;40.95;23.27;;;0.50;99.90;;;;;;5023551;28;20072;-88
2021/12/11 09:06:31;;;;;;;40.70;22.35;;;0.60;99.90;;;;;;5005733;28;20033;-87
2021/12/11 09:09:10;;;;;;;39.45;22.05;;;1.40;99.90;;;;;;5008362;28;20037;-88
2021/12/11 09:11:47;;;;;;;38.22;21.83;;;0.60;99.90;;;;;;5008817;28;20030;-88
2021/12/11 09:14:19;;;;;;;41.17;22.48;;;0.80;99.90;;;;;;5001773;28;20132;-87
2021/12/11 09:17:00;;;;;;;40.80;22.85;;;0.80;99.90;;;;;;5023486;28;20261;-86
2021/12/11 09:19:45;;;;;;;41.33;22.02;;;0.80;99.90;;;;;;5023651;28;20029;-87
2021/12/11 09:22:21;;;;;;;36.92;21.48;;;0.90;99.90;;;;;;5006188;28;20018;-87
2021/12/11 09:24:49;;;;;;;39.20;21.48;;;0.90;99.90;;;;;;5025501;28;20029;-86
2021/12/11 09:27:25;;;;;;;38.85;21.08;;;0.90;99.90;;;;;;5025554;28;20030;-86
2021/12/11 09:29:59;;;;;;;38.67;20.90;;;2.50;99.90;;;;;;5007971;28;20030;-86
2021/12/11 09:32:25;;;;;;;38.78;20.23;;;1.00;99.90;;;;;;5024048;28;20014;-86
2021/12/11 09:35:21;;;;;;;40.97;21.80;;;1.20;99.90;;;;;;5025608;28;20368;-85
2021/12/11 09:37:50;;;;;;;41.60;20.90;;;1.20;99.90;;;;;;5006811;28;20037;-85
2021/12/11 09:40:19;;;;;;;39.33;21.55;;;;;;;;;;5024434;28;20177;-86
2021/12/11 09:42:44;;;;;;;41.63;21.20;;;1.30;99.90;;;;;;5007624;28;20375;-85
2021/12/11 09:45:16;;;;;;;38.00;20.23;;;2.10;99.90;;;;;;5023341;28;20104;-85
2021/12/11 09:47:50;;;;;;;37.30;20.38;;;1.40;99.90;;;;;;5007527;28;20132;-85
2021/12/11 09:50:23;;;;;;;38.58;21.52;;;1.40;99.90;;;;;;5023558;28;20311;-85
2021/12/11 09:52:54;;;;;;;36.72;19.92;;;1.50;99.90;;;;;;5006926;28;20257;-85
2021/12/11 09:55:37;;;;;;;38.88;21.95;;;1.50;99.90;;;;;;4992883;28;20089;-85
2021/12/11 09:58:11;;;;;;;36.78;21.23;;;1.60;99.90;;;;;;5007443;28;20018;-85
2021/12/11 10:00:43;;;;;;;37.75;20.08;;;1.90;99.90;;;;;;5017869;28;20360;-85
2021/12/11 10:03:11;;;;;;;36.45;20.52;;;1.70;99.90;;;;;;5023681;28;20051;-85
2021/12/11 10:05:55;;;;;;;37.63;20.58;;;2.90;99.90;;;;;;5023913;28;20030;-84
2021/12/11 10:11:03;;;;;;;36.55;19.85;;;1.90;99.90;;;;;;5027117;28;20033;-84
2021/12/11 10:13:32;;;;;;;37.92;20.35;;;1.90;99.90;;;;;;5007262;28;20173;-85
2021/12/11 10:15:58;;;;;;;36.67;19.58;;;1.90;99.90;;;;;;5022458;28;20212;-85
2021/12/11 10:18:29;;;;;;;36.33;20.40;;;2.00;99.90;;;;;;5006135;28;20184;-85
2021/12/11 10:21:12;;;;;;;34.95;19.67;;;2.00;99.90;;;;;;5023228;28;20045;-85
2021/12/11 10:23:40;;;;;;;34.40;19.53;;;2.10;99.90;;;;;;5007143;28;20030;-85
2021/12/11 10:26:10;;;;;;;35.58;20.40;;;2.20;99.90;;;;;;5006847;28;20165;-84
2021/12/11 10:28:42;;;;;;;33.00;19.65;;;2.20;99.90;;;;;;5023010;28;20064;-84
2021/12/11 10:31:24;;;;;;;34.67;19.48;;;2.30;99.90;;;;;;5006976;28;20180;-85
2021/12/11 10:33:50;;;;;;;34.72;19.52;;;2.40;99.90;;;;;;5023257;28;20022;-84
2021/12/11 10:36:21;;;;;;;32.80;19.38;;;2.40;99.90;;;;;;4990276;28;20014;-85
2021/12/11 10:38:48;;;;;;;32.05;19.20;;;2.40;99.90;;;;;;5006571;28;20069;-85
2021/12/11 10:41:16;;;;;;;33.30;19.13;;;2.50;99.90;;;;;;5005113;28;20081;-84
2021/12/11 10:43:46;;;;;;;30.65;19.17;;;2.50;99.90;;;;;;5006581;28;20323;-84
2021/12/11 10:46:16;;;;;;;34.72;19.30;;;2.60;99.90;;;;;;5022259;28;20073;-85
2021/12/11 10:48:42;;;;;;;31.77;18.25;;;2.60;99.90;;;;;;5006183;28;20018;-84
2021/12/11 10:51:19;;;;;;;34.88;19.17;;;2.70;99.90;;;;;;5006268;28;20046;-83
2021/12/11 10:53:48;;;;;;;30.88;18.50;;;2.80;99.90;;;;;;5003746;28;20021;-83
2021/12/11 10:56:16;;;;;;;31.38;17.75;;;2.80;99.90;;;;;;5005715;28;20018;-83
2021/12/11 10:58:46;;;;;;;33.55;18.23;;;2.80;99.90;;;;;;4989573;28;20022;-84
2021/12/11 11:01:17;;;;;;;33.95;18.17;;;2.80;99.90;;;;;;5005850;28;20064;-84
2021/12/11 11:03:58;;;;;;;33.90;18.42;;;2.80;99.90;;;;;;5006349;28;20080;-84
2021/12/11 11:06:24;;;;;;;37.33;19.50;;;2.80;99.90;;;;;;5005524;28;20168;-84
2021/12/11 11:08:50;;;;;;;35.63;19.27;;;2.90;99.90;;;;;;4989662;28;20028;-84
2021/12/11 11:11:21;;;;;;;32.90;17.63;;;3.10;99.90;;;;;;4984860;28;20050;-84
2021/12/11 11:13:46;;;;;;;34.05;18.83;;;3.90;99.90;;;;;;5024115;28;20280;-83
2021/12/11 11:16:14;;;;;;;33.90;18.88;;;3.20;99.90;;;;;;5022781;28;20021;-83
2021/12/11 11:18:40;;;;;;;33.92;18.85;;;3.30;99.90;;;;;;5005488;28;20092;-84
2021/12/11 11:21:20;;;;;;;36.17;19.30;;;4.70;99.90;;;;;;4990376;28;20030;-83
2021/12/11 11:24:03;;;;;;;34.00;18.77;;;3.90;99.90;;;;;;5022456;28;20073;-84
2021/12/11 11:26:33;;;;;;;31.05;18.38;;;3.60;99.90;;;;;;5022139;28;20280;-83
2021/12/11 11:29:03;;;;;;;31.23;18.45;;;3.70;99.90;;;;;;5000710;28;20150;-84
2021/12/11 11:31:36;;;;;;;31.88;18.17;;;4.00;99.90;;;;;;5016859;28;20060;-83
2021/12/11 11:34:08;;;;;;;30.20;17.27;;;3.80;99.90;;;;;;5006424;28;20152;-83
2021/12/11 11:36:35;;;;;;;30.75;17.48;;;3.80;99.90;;;;;;5005989;28;20248;-83
2021/12/11 11:39:10;;;;;;;31.95;16.73;;;3.80;99.90;;;;;;5005879;28;20030;-83
2021/12/11 11:41:41;;;;;;;32.55;17.77;;;3.80;99.90;;;;;;5021980;28;20060;-83
2021/12/11 11:44:07;;;;;;;34.45;18.17;;;3.90;99.90;;;;;;5006211;28;20026;-83
2021/12/11 11:46:36;;;;;;;32.17;18.00;;;4.00;99.90;;;;;;5006193;28;20284;-84
2021/12/11 11:49:03;;;;;;;33.28;18.20;;;4.00;99.90;;;;;;5006468;28;20032;-83
2021/12/11 11:51:37;;;;;;;33.00;18.52;;;4.10;99.90;;;;;;5022490;28;20036;-83
2021/12/11 11:54:05;;;;;;;31.13;17.92;;;3.90;99.90;;;;;;5006078;28;20025;-84
2021/12/11 11:56:40;;;;;;;30.42;18.50;;;3.90;99.90;;;;;;5005903;28;20374;-84
2021/12/11 11:59:10;;;;;;;32.75;18.08;;;3.90;99.90;;;;;;4998562;28;20065;-83
2021/12/11 12:01:52;;;;;;;31.00;17.65;;;3.80;99.90;;;;;;5003350;28;20109;-83
2021/12/11 12:04:21;;;;;;;31.70;17.83;;;3.90;99.90;;;;;;4996010;28;20262;-83
2021/12/11 12:06:55;;;;;;;33.97;19.38;;;4.60;99.90;;;;;;5004446;28;20200;-83
2021/12/11 12:09:22;;;;;;;31.27;18.65;;;3.80;99.90;;;;;;5002393;28;20034;-85
2021/12/11 12:11:48;;;;;;;34.10;18.20;;;3.80;99.90;;;;;;4987326;28;20281;-84
2021/12/11 12:14:20;;;;;;;31.52;19.48;;;3.80;99.90;;;;;;5021737;28;20089;-83
2021/12/11 12:16:47;;;;;;;34.42;19.50;;;4.40;99.90;;;;;;5005097;28;20018;-84
2021/12/11 12:19:14;;;;;;;31.83;19.65;;;3.80;99.90;;;;;;4988639;28;20095;-84
2021/12/11 12:21:42;;;;;;;31.58;19.48;;;3.50;99.90;;;;;;5020553;28;20080;-83
2021/12/11 12:24:10;;;;;;;35.20;20.55;;;4.60;99.90;;;;;;4996446;28;20022;-84
2021/12/11 12:26:37;;;;;;;30.70;18.88;;;4.40;99.90;;;;;;5021127;28;20026;-84
2021/12/11 12:29:09;;;;;;;34.10;19.02;;;3.90;99.90;;;;;;5001163;28;20037;-83
2021/12/11 12:31:39;;;;;;;28.30;18.38;;;3.90;99.90;;;;;;5018410;28;20029;-82
2021/12/11 12:34:07;;;;;;;30.17;18.15;;;4.10;99.90;;;;;;5021550;28;20153;-84
2021/12/11 12:36:34;;;;;;;31.20;18.65;;;4.00;99.90;;;;;;4989276;28;20014;-84
2021/12/11 12:39:00;;;;;;;32.50;20.40;;;4.00;99.90;;;;;;5021812;28;20189;-84
2021/12/11 12:41:37;;;;;;;33.55;18.77;;;4.10;99.90;;;;;;4987969;28;20081;-85
2021/12/11 12:44:26;;;;;;;31.33;18.98;;;4.20;99.90;;;;;;5008810;28;20022;-83
2021/12/11 12:47:08;;;;;;;28.67;18.13;;;4.30;99.90;;;;;;5025089;28;20029;-83
2021/12/11 12:49:39;;;;;;;32.05;18.40;;;4.40;99.90;;;;;;5025357;28;20176;-83
2021/12/11 12:52:12;;;;;;;30.58;17.27;;;4.40;99.90;;;;;;5024338;28;20028;-84
2021/12/11 12:54:38;;;;;;;28.83;17.33;;;4.60;99.90;;;;;;5026459;28;20142;-83
2021/12/11 12:57:33;;;;;;;32.42;18.10;;;4.30;99.90;;;;;;5007097;28;20183;-83
2021/12/11 13:00:10;;;;;;;29.27;17.08;;;4.30;99.90;;;;;;5022756;28;20022;-84
2021/12/11 13:02:40;;;;;;;31.58;17.25;;;4.30;99.90;;;;;;5023531;28;20032;-84
2021/12/11 13:05:30;;;;;;;32.35;17.38;;;5.40;99.90;;;;;;4992305;28;20269;-84
2021/12/11 13:08:07;;;;;;;29.50;17.27;;;4.50;99.90;;;;;;5007685;28;20101;-84
2021/12/11 13:10:37;;;;;;;28.80;17.92;;;4.40;99.90;;;;;;5023187;28;20040;-85
2021/12/11 13:13:05;;;;;;;29.13;17.23;;;4.40;99.90;;;;;;5007991;28;20033;-83